Time;durP1;ratioP1;P1;durP2;ratioP2;P2;SDS_P1;SDS_P2;PMS_P1;PMS_P2;Temp;Humidity;BMP_temperature;BMP_pressure;BME280_temperature;BME280_humidity;BME280_pressure;Samples;Min_cycle;Max_cycle;Signal;HPM_P1;HPM_P2
2023/10/27 00:01:09;;;;;;;4.57;1.33;;;14.60;99.90;;;;;;4993084;28;20027;-40
2023/10/27 00:03:35;;;;;;;2.17;1.10;;;14.60;99.90;;;;;;4993227;28;20026;-41
2023/10/27 00:06:01;;;;;;;2.15;1.23;;;14.60;99.90;;;;;;4992991;28;20034;-39
2023/10/27 00:08:27;;;;;;;2.50;1.00;;;14.60;99.90;;;;;;4993067;28;20030;-39
2023/10/27 00:10:53;;;;;;;2.00;1.08;;;14.50;99.90;;;;;;4993430;28;20019;-38
2023/10/27 00:13:19;;;;;;;2.33;0.98;;;14.60;99.90;;;;;;4993017;28;20030;-39
2023/10/27 00:15:45;;;;;;;1.98;1.02;;;14.50;99.90;;;;;;4992827;28;20085;-40
2023/10/27 00:18:12;;;;;;;2.67;1.17;;;14.50;99.90;;;;;;4992940;28;20034;-40
2023/10/27 00:20:37;;;;;;;2.15;0.93;;;14.60;99.90;;;;;;4992835;28;20057;-40
2023/10/27 00:23:03;;;;;;;3.20;0.90;;;14.50;99.90;;;;;;4992876;28;20073;-38
2023/10/27 00:25:29;;;;;;;3.42;1.23;;;14.60;99.90;;;;;;4992542;28;20023;-40
2023/10/27 00:27:54;;;;;;;1.90;1.20;;;14.50;99.90;;;;;;4992653;28;20038;-40
2023/10/27 00:30:20;;;;;;;1.13;0.90;;;14.50;99.90;;;;;;4992808;28;20027;-42
2023/10/27 00:32:46;;;;;;;2.13;0.85;;;14.50;99.90;;;;;;4992608;28;20072;-41
2023/10/27 00:35:12;;;;;;;2.50;1.02;;;14.60;99.90;;;;;;4991935;28;20034;-39
2023/10/27 00:37:38;;;;;;;1.83;1.02;;;14.60;99.90;;;;;;4992595;28;20510;-40
2023/10/27 00:40:04;;;;;;;2.20;0.93;;;14.50;99.90;;;;;;4992459;28;20513;-39
2023/10/27 00:42:30;;;;;;;1.73;1.05;;;14.50;99.90;;;;;;4992651;28;20045;-39
2023/10/27 00:44:56;;;;;;;1.90;1.00;;;14.50;99.90;;;;;;4992068;28;20524;-40
2023/10/27 00:47:24;;;;;;;3.28;1.10;;;14.50;99.90;;;;;;4992313;28;20030;-39
2023/10/27 00:49:50;;;;;;;1.85;0.82;;;14.60;99.90;;;;;;4992372;28;20530;-40
2023/10/27 00:52:18;;;;;;;1.55;1.23;;;14.60;99.90;;;;;;4975072;28;20030;-40
2023/10/27 00:54:46;;;;;;;2.15;0.98;;;14.50;99.90;;;;;;4992016;28;20022;-39
2023/10/27 00:57:13;;;;;;;2.45;0.95;;;14.50;99.90;;;;;;4992424;28;20033;-40
2023/10/27 00:59:39;;;;;;;3.88;0.98;;;14.50;99.90;;;;;;4992439;28;20042;-39
2023/10/27 01:02:05;;;;;;;2.63;1.10;;;14.60;99.90;;;;;;4992363;28;20022;-40
2023/10/27 01:04:30;;;;;;;2.92;1.20;;;14.50;99.90;;;;;;4992216;28;20117;-40
2023/10/27 01:06:56;;;;;;;4.32;1.23;;;14.50;99.90;;;;;;4992030;28;20056;-41
2023/10/27 01:09:22;;;;;;;4.32;0.90;;;14.50;99.90;;;;;;4992004;28;20047;-41
2023/10/27 01:11:48;;;;;;;2.20;1.08;;;14.50;99.90;;;;;;4992164;28;20026;-40
2023/10/27 01:14:14;;;;;;;3.53;1.10;;;14.50;99.90;;;;;;4992292;28;20435;-39
2023/10/27 01:16:40;;;;;;;1.98;1.00;;;14.50;99.90;;;;;;4991949;28;20065;-43
2023/10/27 01:19:06;;;;;;;1.83;1.10;;;14.50;99.90;;;;;;4991983;28;20109;-40
2023/10/27 01:21:31;;;;;;;2.72;1.25;;;14.50;99.90;;;;;;4991960;28;20034;-39
2023/10/27 01:23:57;;;;;;;1.83;0.95;;;14.50;99.90;;;;;;4991826;28;20026;-38
2023/10/27 01:26:23;;;;;;;1.83;0.82;;;14.50;99.90;;;;;;4991662;28;20026;-41
2023/10/27 01:28:48;;;;;;;1.63;0.90;;;14.50;99.90;;;;;;4991929;28;20049;-40
2023/10/27 01:31:15;;;;;;;4.00;1.23;;;14.50;99.90;;;;;;4991873;28;20077;-41
2023/10/27 01:33:41;;;;;;;2.50;1.25;;;14.50;99.90;;;;;;4992038;28;20487;-42
2023/10/27 01:36:06;;;;;;;2.60;0.90;;;14.50;99.90;;;;;;4991672;28;20054;-40
2023/10/27 01:38:32;;;;;;;1.75;0.80;;;14.50;99.90;;;;;;4991648;28;20034;-42
2023/10/27 01:40:58;;;;;;;2.67;0.98;;;14.50;99.90;;;;;;4991749;28;20029;-40
2023/10/27 01:43:23;;;;;;;1.67;0.73;;;14.50;99.90;;;;;;4991877;28;20026;-43
2023/10/27 01:45:49;;;;;;;1.77;1.05;;;14.50;99.90;;;;;;4992041;28;20395;-39
2023/10/27 01:48:14;;;;;;;2.10;0.95;;;14.50;99.90;;;;;;4993609;28;20357;-40
2023/10/27 01:50:41;;;;;;;2.10;1.05;;;14.50;99.90;;;;;;4995741;28;20026;-39
2023/10/27 01:53:07;;;;;;;1.33;0.73;;;14.50;99.90;;;;;;4995614;28;20019;-38
2023/10/27 01:55:32;;;;;;;3.00;0.80;;;14.50;99.90;;;;;;4995688;28;20034;-39
2023/10/27 01:57:58;;;;;;;2.13;0.80;;;14.50;99.90;;;;;;4995511;28;20046;-40
2023/10/27 02:00:23;;;;;;;1.80;0.90;;;14.50;99.90;;;;;;4995498;28;20034;-40
2023/10/27 02:02:49;;;;;;;1.10;0.80;;;14.50;99.90;;;;;;4995502;28;20027;-41
2023/10/27 02:05:15;;;;;;;1.70;0.90;;;14.50;99.90;;;;;;4995206;28;20475;-40
2023/10/27 02:07:40;;;;;;;1.95;0.98;;;14.50;99.90;;;;;;4995234;28;20018;-39
2023/10/27 02:10:06;;;;;;;2.38;1.00;;;14.50;99.90;;;;;;4977821;28;20053;-39
2023/10/27 02:12:32;;;;;;;1.60;0.93;;;14.50;99.90;;;;;;4995191;28;20045;-39
2023/10/27 02:14:58;;;;;;;1.83;0.80;;;14.50;99.90;;;;;;4995082;28;20030;-39
2023/10/27 02:17:23;;;;;;;1.90;0.93;;;14.50;99.90;;;;;;4995174;28;20027;-40
2023/10/27 02:19:50;;;;;;;1.92;0.90;;;14.50;99.90;;;;;;4995239;28;20026;-39
2023/10/27 02:22:17;;;;;;;1.73;0.80;;;14.50;99.90;;;;;;4994856;28;20022;-42
2023/10/27 02:24:44;;;;;;;2.33;0.98;;;14.50;99.90;;;;;;4994936;28;20027;-40
2023/10/27 02:27:09;;;;;;;1.90;1.00;;;14.50;99.90;;;;;;4994907;28;20021;-43
2023/10/27 02:29:35;;;;;;;2.17;1.08;;;14.50;99.90;;;;;;4994975;28;20097;-41
2023/10/27 02:32:00;;;;;;;3.67;0.80;;;14.50;99.90;;;;;;4994870;28;20104;-39
2023/10/27 02:34:26;;;;;;;1.77;0.77;;;14.50;99.90;;;;;;4994853;28;20026;-41
2023/10/27 02:36:52;;;;;;;3.72;1.02;;;14.50;99.90;;;;;;4994617;28;20489;-41
2023/10/27 02:39:17;;;;;;;1.88;0.80;;;14.50;99.90;;;;;;4995072;28;20101;-42
2023/10/27 02:41:43;;;;;;;2.78;0.93;;;14.50;99.90;;;;;;4994723;28;20534;-43
2023/10/27 02:44:09;;;;;;;1.75;0.82;;;14.50;99.90;;;;;;4994562;28;20019;-37
2023/10/27 02:46:36;;;;;;;1.73;0.90;;;14.50;99.90;;;;;;4994432;28;20480;-40
2023/10/27 02:49:05;;;;;;;2.45;1.13;;;14.50;99.90;;;;;;4994661;28;20030;-40
2023/10/27 02:51:31;;;;;;;2.63;1.10;;;14.40;99.90;;;;;;4994476;28;20030;-40
2023/10/27 02:53:57;;;;;;;1.55;0.80;;;14.50;99.90;;;;;;4994751;28;20026;-40
2023/10/27 02:56:23;;;;;;;2.05;0.80;;;14.50;99.90;;;;;;4994441;28;20109;-40
2023/10/27 02:58:49;;;;;;;1.50;0.77;;;14.50;99.90;;;;;;4993937;28;20105;-40
2023/10/27 03:01:15;;;;;;;1.45;0.85;;;14.40;99.90;;;;;;4994329;28;20037;-40
2023/10/27 03:03:44;;;;;;;1.95;0.90;;;14.40;99.90;;;;;;4994314;28;20022;-41
2023/10/27 03:06:10;;;;;;;1.85;0.93;;;14.40;99.90;;;;;;4993962;28;20100;-41
2023/10/27 03:08:37;;;;;;;0.82;0.63;;;14.50;99.90;;;;;;4994185;28;20088;-39
2023/10/27 03:11:03;;;;;;;1.48;0.90;;;14.40;99.90;;;;;;4994158;28;20547;-43
2023/10/27 03:13:30;;;;;;;2.92;0.90;;;14.50;99.90;;;;;;4994297;28;20110;-41
2023/10/27 03:15:58;;;;;;;2.25;0.95;;;14.40;99.90;;;;;;4993904;28;20088;-40
2023/10/27 03:18:24;;;;;;;3.40;0.80;;;14.40;99.90;;;;;;4994044;28;20025;-40
2023/10/27 03:20:57;;;;;;;2.03;0.70;;;14.40;99.90;;;;;;4993957;28;20022;-40
2023/10/27 03:23:23;;;;;;;2.25;0.90;;;14.40;99.90;;;;;;4994217;28;20030;-39
2023/10/27 03:25:49;;;;;;;1.60;0.60;;;14.50;99.90;;;;;;4993794;28;20053;-40
2023/10/27 03:28:15;;;;;;;3.05;0.85;;;14.50;99.90;;;;;;4993825;28;20061;-39
2023/10/27 03:30:42;;;;;;;2.22;0.80;;;14.40;99.90;;;;;;4993816;28;20022;-40
2023/10/27 03:33:08;;;;;;;1.83;0.80;;;14.40;99.90;;;;;;4993749;28;20015;-42
2023/10/27 03:35:34;;;;;;;1.40;0.70;;;14.50;99.90;;;;;;4993688;28;20494;-41
2023/10/27 03:38:00;;;;;;;2.40;0.80;;;14.50;99.90;;;;;;4993685;28;20018;-41
2023/10/27 03:40:26;;;;;;;1.13;0.75;;;14.40;99.90;;;;;;4976244;28;20041;-41
2023/10/27 03:42:51;;;;;;;1.27;0.73;;;14.40;99.90;;;;;;4993551;28;20109;-42
2023/10/27 03:45:17;;;;;;;3.30;0.70;;;14.40;99.90;;;;;;4993239;28;20061;-44
2023/10/27 03:47:42;;;;;;;1.50;0.60;;;14.40;99.90;;;;;;4993327;28;20503;-38
2023/10/27 03:50:08;;;;;;;2.15;0.80;;;14.50;99.90;;;;;;4993437;28;20026;-40
2023/10/27 03:52:34;;;;;;;1.77;0.70;;;14.40;99.90;;;;;;4993302;28;20026;-40
2023/10/27 03:54:59;;;;;;;1.90;0.73;;;14.40;99.90;;;;;;4993230;28;20033;-40
2023/10/27 03:57:25;;;;;;;1.45;0.80;;;14.40;99.90;;;;;;4993365;28;20027;-40
2023/10/27 03:59:51;;;;;;;1.10;0.70;;;14.40;99.90;;;;;;4993413;28;20045;-38
2023/10/27 04:02:16;;;;;;;1.67;0.70;;;14.40;99.90;;;;;;4993177;28;20038;-40
2023/10/27 04:04:42;;;;;;;0.95;0.70;;;14.40;99.90;;;;;;4993379;28;20061;-41
2023/10/27 04:07:08;;;;;;;1.92;0.70;;;14.40;99.90;;;;;;4992979;28;20033;-40
2023/10/27 04:09:33;;;;;;;1.58;0.70;;;14.40;99.90;;;;;;4992888;28;20022;-43
2023/10/27 04:11:59;;;;;;;3.55;0.70;;;14.40;99.90;;;;;;4992544;28;20069;-41
2023/10/27 04:14:25;;;;;;;1.30;0.60;;;14.40;99.90;;;;;;4992992;28;20041;-39
2023/10/27 04:16:51;;;;;;;1.50;0.65;;;14.40;99.90;;;;;;4992790;28;20041;-40
2023/10/27 04:19:17;;;;;;;2.45;0.85;;;14.40;99.90;;;;;;4992972;28;20034;-40
2023/10/27 04:21:42;;;;;;;1.98;0.55;;;14.40;99.90;;;;;;4992738;28;20049;-41
2023/10/27 04:24:08;;;;;;;2.80;0.82;;;14.40;99.90;;;;;;4992721;28;20089;-40
2023/10/27 04:26:33;;;;;;;1.42;0.70;;;14.40;99.90;;;;;;4992709;28;20109;-39
2023/10/27 04:28:59;;;;;;;0.85;0.60;;;14.40;99.90;;;;;;4992791;28;20358;-42
2023/10/27 04:31:25;;;;;;;1.70;0.80;;;14.40;99.90;;;;;;4992595;28;20045;-40
2023/10/27 04:33:51;;;;;;;1.88;0.75;;;14.40;99.90;;;;;;4992795;28;20037;-42
2023/10/27 04:36:17;;;;;;;1.40;0.63;;;14.40;99.90;;;;;;4992299;28;20022;-42
2023/10/27 04:38:45;;;;;;;1.63;0.57;;;14.40;99.90;;;;;;4992557;28;20088;-42
2023/10/27 04:41:11;;;;;;;1.08;0.57;;;14.40;99.90;;;;;;4992412;28;20041;-43
2023/10/27 04:43:36;;;;;;;1.50;0.50;;;14.40;99.90;;;;;;4992501;28;20026;-39
2023/10/27 04:46:02;;;;;;;1.52;0.80;;;14.40;99.90;;;;;;4992018;28;20038;-39
2023/10/27 04:48:28;;;;;;;1.35;0.80;;;14.40;99.90;;;;;;4992404;28;20061;-40
2023/10/27 04:50:58;;;;;;;2.17;0.70;;;14.40;99.90;;;;;;4992309;28;20030;-40
2023/10/27 04:53:24;;;;;;;2.53;0.60;;;14.40;99.90;;;;;;4992374;28;20114;-37
2023/10/27 04:55:50;;;;;;;3.25;0.77;;;14.40;99.90;;;;;;4992231;28;20094;-39
2023/10/27 04:58:16;;;;;;;0.93;0.40;;;14.40;99.90;;;;;;4992333;28;20026;-40
2023/10/27 05:00:41;;;;;;;1.33;0.63;;;14.40;99.90;;;;;;4992191;28;20030;-40
2023/10/27 05:03:08;;;;;;;2.33;0.60;;;14.40;99.90;;;;;;4992140;28;20117;-40
2023/10/27 05:05:33;;;;;;;3.13;0.63;;;14.40;99.90;;;;;;4992022;28;20383;-40
2023/10/27 05:07:59;;;;;;;1.30;0.55;;;14.40;99.90;;;;;;4992060;28;20023;-40
2023/10/27 05:10:25;;;;;;;3.25;0.60;;;14.40;99.90;;;;;;4992201;28;20023;-39
2023/10/27 05:12:50;;;;;;;1.67;0.73;;;14.40;99.90;;;;;;4992079;28;20038;-38
2023/10/27 05:15:16;;;;;;;2.05;0.60;;;14.30;99.90;;;;;;4991745;28;20033;-40
2023/10/27 05:17:42;;;;;;;0.75;0.50;;;14.40;99.90;;;;;;4991972;28;20038;-40
2023/10/27 05:20:08;;;;;;;1.15;0.65;;;14.40;99.90;;;;;;4992168;28;20030;-40
2023/10/27 05:22:34;;;;;;;1.48;0.50;;;14.40;99.90;;;;;;4991996;28;20026;-40
2023/10/27 05:25:04;;;;;;;0.90;0.60;;;14.30;99.90;;;;;;4991796;28;20030;-39
2023/10/27 05:27:30;;;;;;;1.25;0.50;;;14.40;99.90;;;;;;4991883;28;20106;-40
2023/10/27 05:29:55;;;;;;;2.83;0.70;;;14.40;99.90;;;;;;4991816;28;20470;-40
2023/10/27 05:32:21;;;;;;;2.35;0.85;;;14.40;99.90;;;;;;4992033;28;20464;-39
2023/10/27 05:34:47;;;;;;;0.65;0.50;;;14.40;99.90;;;;;;4991643;28;20085;-41
2023/10/27 05:37:13;;;;;;;1.60;0.60;;;14.40;99.90;;;;;;4991898;28;20027;-38
2023/10/27 05:39:39;;;;;;;0.90;0.55;;;14.30;99.90;;;;;;4991937;28;20097;-44
2023/10/27 05:42:04;;;;;;;4.00;0.80;;;14.40;99.90;;;;;;4991736;28;20035;-39
2023/10/27 05:44:30;;;;;;;1.85;0.68;;;14.30;99.90;;;;;;4991563;28;20023;-40
2023/10/27 05:46:58;;;;;;;1.60;0.50;;;14.30;99.90;;;;;;4991606;28;20369;-40
2023/10/27 05:49:24;;;;;;;1.27;0.70;;;14.30;99.90;;;;;;4991715;28;20014;-37
2023/10/27 05:51:50;;;;;;;1.77;0.80;;;14.40;99.90;;;;;;4991797;28;20030;-40
2023/10/27 05:54:16;;;;;;;1.95;0.50;;;14.30;99.90;;;;;;4991565;28;20118;-38
2023/10/27 05:56:41;;;;;;;1.83;0.65;;;14.30;99.90;;;;;;4991501;28;20496;-40
2023/10/27 05:59:07;;;;;;;1.52;0.63;;;14.40;99.90;;;;;;4991618;28;20034;-41
2023/10/27 06:01:33;;;;;;;0.80;0.40;;;14.30;99.90;;;;;;4991581;28;20156;-39
2023/10/27 06:03:59;;;;;;;1.42;0.60;;;14.30;99.90;;;;;;4991719;28;20507;-39
2023/10/27 06:06:25;;;;;;;1.35;0.70;;;14.30;99.90;;;;;;4991389;28;20025;-39
2023/10/27 06:08:51;;;;;;;0.95;0.52;;;14.30;99.90;;;;;;4991588;28;20038;-42
2023/10/27 06:11:17;;;;;;;1.40;0.70;;;14.30;99.90;;;;;;4991485;28;20396;-43
2023/10/27 06:13:42;;;;;;;2.15;0.60;;;14.30;99.90;;;;;;4991393;28;20412;-39
2023/10/27 06:16:08;;;;;;;1.48;0.75;;;14.30;99.90;;;;;;4991320;28;20049;-39
2023/10/27 06:18:34;;;;;;;0.80;0.50;;;14.40;99.90;;;;;;4991377;28;20034;-40
2023/10/27 06:21:00;;;;;;;1.10;0.85;;;14.40;99.90;;;;;;4991570;28;20034;-40
2023/10/27 06:23:26;;;;;;;1.27;0.60;;;14.30;99.90;;;;;;4991595;28;20025;-42
2023/10/27 06:25:52;;;;;;;1.02;0.60;;;14.30;99.90;;;;;;4991309;28;20438;-41
2023/10/27 06:28:17;;;;;;;1.30;0.60;;;14.40;99.90;;;;;;4991366;28;20118;-42
2023/10/27 06:30:43;;;;;;;1.63;0.60;;;14.30;99.90;;;;;;4991571;28;20533;-40
2023/10/27 06:33:09;;;;;;;0.60;0.30;;;14.40;99.90;;;;;;4991553;28;20038;-38
2023/10/27 06:35:35;;;;;;;0.85;0.50;;;14.30;99.90;;;;;;4994685;28;20026;-42
2023/10/27 06:38:00;;;;;;;0.70;0.38;;;14.30;99.90;;;;;;4994812;28;20088;-44
2023/10/27 06:40:26;;;;;;;1.65;0.60;;;14.30;99.90;;;;;;4994732;28;20484;-39
2023/10/27 06:42:52;;;;;;;0.70;0.50;;;14.30;99.90;;;;;;4994672;28;20572;-40
2023/10/27 06:45:17;;;;;;;1.45;0.40;;;14.40;99.90;;;;;;4994385;28;20081;-39
2023/10/27 06:47:43;;;;;;;1.20;0.57;;;14.30;99.90;;;;;;4994561;28;20046;-39
2023/10/27 06:50:09;;;;;;;1.13;0.50;;;14.30;99.90;;;;;;4994585;28;20097;-40
2023/10/27 06:52:35;;;;;;;0.70;0.43;;;14.30;99.90;;;;;;4994554;28;20161;-39
2023/10/27 06:55:01;;;;;;;1.27;0.40;;;14.30;99.90;;;;;;4994294;28;20428;-41
2023/10/27 06:57:27;;;;;;;1.15;0.47;;;14.30;99.90;;;;;;4994377;28;20073;-40
2023/10/27 06:59:56;;;;;;;1.77;0.50;;;14.30;99.90;;;;;;4994469;28;20026;-41
2023/10/27 07:02:22;;;;;;;0.77;0.40;;;14.30;99.90;;;;;;4994279;28;20018;-39
2023/10/27 07:04:47;;;;;;;1.67;0.40;;;14.30;99.90;;;;;;4994231;28;20076;-39
2023/10/27 07:07:13;;;;;;;0.57;0.47;;;14.40;99.90;;;;;;4994627;28;20106;-41
2023/10/27 07:09:39;;;;;;;0.82;0.50;;;14.30;99.90;;;;;;4994253;28;20026;-39
2023/10/27 07:12:05;;;;;;;1.67;0.50;;;14.30;99.90;;;;;;4994526;28;20098;-40
2023/10/27 07:14:31;;;;;;;1.08;0.40;;;14.30;99.90;;;;;;4994325;28;20497;-41
2023/10/27 07:16:59;;;;;;;1.10;0.52;;;14.30;99.90;;;;;;4993962;28;20106;-40
2023/10/27 07:19:25;;;;;;;0.73;0.40;;;14.30;99.90;;;;;;4994218;28;20033;-39
2023/10/27 07:21:51;;;;;;;0.50;0.32;;;14.30;99.90;;;;;;4993995;28;20026;-40
2023/10/27 07:24:17;;;;;;;1.00;0.32;;;14.30;99.90;;;;;;4994092;28;20038;-39
2023/10/27 07:26:42;;;;;;;0.63;0.40;;;14.30;99.90;;;;;;4993755;28;20022;-39
2023/10/27 07:29:08;;;;;;;0.50;0.38;;;14.30;99.90;;;;;;4994083;28;20026;-38
2023/10/27 07:31:34;;;;;;;0.95;0.70;;;14.40;99.90;;;;;;4991889;28;20034;-41
2023/10/27 07:34:00;;;;;;;0.82;0.40;;;14.20;99.90;;;;;;4993987;28;20033;-43
2023/10/27 07:36:26;;;;;;;3.70;1.33;;;14.10;99.90;;;;;;4992713;28;20038;-45
2023/10/27 07:38:52;;;;;;;1.55;0.52;;;14.00;99.90;;;;;;4993659;28;20454;-38
2023/10/27 07:41:18;;;;;;;2.92;0.60;;;14.10;99.90;;;;;;4993670;28;20034;-41
2023/10/27 07:43:43;;;;;;;4.00;0.82;;;14.10;99.90;;;;;;4993735;28;20026;-41
2023/10/27 07:46:09;;;;;;;2.13;0.70;;;14.10;99.90;;;;;;5015051;23;20074;-40
2023/10/27 07:48:35;;;;;;;1.02;0.70;;;14.10;99.90;;;;;;4993783;28;20366;-39
2023/10/27 07:51:01;;;;;;;2.75;0.80;;;14.10;99.90;;;;;;4993458;28;20022;-39
2023/10/27 07:53:27;;;;;;;1.50;0.65;;;14.10;99.90;;;;;;4993626;28;20054;-37
2023/10/27 07:55:54;;;;;;;1.45;0.60;;;14.10;99.90;;;;;;4993368;28;20031;-41
2023/10/27 07:58:25;;;;;;;1.92;0.70;;;14.10;99.90;;;;;;4975858;28;20030;-38
2023/10/27 08:00:53;;;;;;;1.20;0.70;;;14.10;99.90;;;;;;4993381;28;20018;-39
2023/10/27 08:03:22;;;;;;;1.67;0.43;;;14.20;99.90;;;;;;4993430;28;20503;-39
2023/10/27 08:05:48;;;;;;;0.77;0.50;;;14.10;99.90;;;;;;4993243;28;20038;-40
2023/10/27 08:08:14;;;;;;;1.38;0.47;;;14.20;99.90;;;;;;4993202;28;20041;-41
2023/10/27 08:10:40;;;;;;;1.23;0.60;;;14.10;99.90;;;;;;4993263;28;20026;-38
2023/10/27 08:13:06;;;;;;;0.90;0.50;;;14.20;99.90;;;;;;4993194;28;20023;-38
2023/10/27 08:15:35;;;;;;;1.17;0.63;;;14.10;99.90;;;;;;4993107;28;20056;-37
2023/10/27 08:18:03;;;;;;;1.50;0.50;;;14.20;99.90;;;;;;4993089;28;20026;-39
2023/10/27 08:20:29;;;;;;;1.45;0.50;;;14.20;99.90;;;;;;4993116;28;20034;-39
2023/10/27 08:22:55;;;;;;;0.80;0.60;;;14.20;99.90;;;;;;4993122;28;20084;-41
2023/10/27 08:25:24;;;;;;;0.38;0.30;;;14.20;99.90;;;;;;4993112;28;20050;-38
2023/10/27 08:27:50;;;;;;;0.65;0.50;;;14.20;99.90;;;;;;4992957;28;20046;-37
2023/10/27 08:30:16;;;;;;;2.92;0.50;;;14.20;99.90;;;;;;4993298;28;20460;-41
2023/10/27 08:32:41;;;;;;;0.75;0.50;;;14.10;99.90;;;;;;4993227;28;20394;-39
2023/10/27 08:35:07;;;;;;;0.88;0.60;;;14.20;99.90;;;;;;4992816;28;20491;-38
2023/10/27 08:37:33;;;;;;;5.00;0.52;;;14.10;99.90;;;;;;4992555;28;20038;-37
2023/10/27 08:39:58;;;;;;;1.88;0.45;;;14.10;99.90;;;;;;4992667;28;20032;-38
2023/10/27 08:42:32;;;;;;;3.10;0.40;;;13.90;99.90;;;;;;4993027;28;20101;-38
2023/10/27 08:44:58;;;;;;;4.25;0.50;;;13.80;99.90;;;;;;4991833;28;20476;-37
2023/10/27 08:47:33;;;;;;;0.98;0.70;;;13.70;99.90;;;;;;4992508;28;20109;-40
2023/10/27 08:50:01;;;;;;;1.80;1.05;;;13.50;99.90;;;;;;4993163;28;20022;-40
2023/10/27 08:52:28;;;;;;;1.23;0.80;;;13.40;99.90;;;;;;4992963;28;20037;-37
2023/10/27 08:54:54;;;;;;;4.15;0.70;;;13.40;99.90;;;;;;4992603;28;20018;-40
2023/10/27 08:57:19;;;;;;;1.40;0.90;;;13.50;99.90;;;;;;4974406;28;20391;-39
2023/10/27 08:59:45;;;;;;;1.65;0.70;;;13.60;99.90;;;;;;4992286;28;20030;-39
2023/10/27 09:02:10;;;;;;;2.08;1.08;;;13.60;99.90;;;;;;4992426;28;20500;-39
2023/10/27 09:04:43;;;;;;;1.35;0.95;;;13.70;99.90;;;;;;4992406;28;20033;-38
2023/10/27 09:07:08;;;;;;;1.33;0.73;;;13.80;99.90;;;;;;4992075;28;20023;-39
2023/10/27 09:09:35;;;;;;;1.63;0.80;;;13.80;99.90;;;;;;4992435;28;20038;-37
2023/10/27 09:12:00;;;;;;;1.42;0.70;;;13.80;99.90;;;;;;4992251;28;20025;-39
2023/10/27 09:14:33;;;;;;;1.63;0.80;;;13.90;99.90;;;;;;4992315;28;20030;-39
2023/10/27 09:17:07;;;;;;;3.22;0.80;;;13.90;99.90;;;;;;4991978;28;20019;-40
2023/10/27 09:19:34;;;;;;;1.27;0.90;;;14.00;99.90;;;;;;4992312;28;20081;-40
2023/10/27 09:22:00;;;;;;;1.27;0.70;;;14.00;99.90;;;;;;4992501;28;20053;-40
2023/10/27 09:24:28;;;;;;;1.02;0.60;;;14.00;99.90;;;;;;4992032;28;20050;-39
2023/10/27 09:26:55;;;;;;;2.25;0.70;;;14.00;99.90;;;;;;4992138;28;20492;-39
2023/10/27 09:29:21;;;;;;;0.90;0.70;;;14.00;99.90;;;;;;4992215;28;20027;-40
2023/10/27 09:31:48;;;;;;;1.30;0.82;;;14.10;99.90;;;;;;4991986;28;20073;-39
2023/10/27 09:34:24;;;;;;;2.25;0.70;;;14.10;99.90;;;;;;4991941;28;20053;-38
2023/10/27 09:36:52;;;;;;;2.30;0.73;;;14.10;99.90;;;;;;4991759;28;20490;-38
2023/10/27 09:39:20;;;;;;;1.52;0.63;;;14.10;99.90;;;;;;4991881;28;20034;-40
2023/10/27 09:42:03;;;;;;;0.88;0.60;;;14.10;99.90;;;;;;4991980;28;20026;-40
2023/10/27 09:44:45;;;;;;;0.80;0.60;;;14.10;99.90;;;;;;4991800;28;20062;-37
2023/10/27 09:47:22;;;;;;;1.23;0.70;;;14.10;99.90;;;;;;4991893;28;20030;-39
2023/10/27 09:49:54;;;;;;;1.60;0.70;;;14.20;99.90;;;;;;4991958;28;20029;-40
2023/10/27 09:52:21;;;;;;;2.10;0.70;;;14.20;99.90;;;;;;4991874;28;20081;-39
2023/10/27 09:54:48;;;;;;;1.25;0.70;;;14.20;99.90;;;;;;4991745;28;20030;-40
2023/10/27 09:57:14;;;;;;;1.00;0.60;;;14.10;99.90;;;;;;4991948;28;20043;-39
2023/10/27 09:59:41;;;;;;;1.85;0.80;;;14.10;99.90;;;;;;4991777;28;20030;-40
2023/10/27 10:02:07;;;;;;;1.25;0.70;;;14.20;99.90;;;;;;4991893;28;20383;-38
2023/10/27 10:04:51;;;;;;;1.85;0.68;;;14.20;99.90;;;;;;4992150;28;20029;-39
2023/10/27 10:07:44;;;;;;;1.13;0.50;;;14.20;99.90;;;;;;4992083;28;20034;-41
2023/10/27 10:10:26;;;;;;;1.15;0.55;;;14.20;99.90;;;;;;4995112;28;20026;-38
2023/10/27 10:13:16;;;;;;;3.60;0.90;;;14.20;99.90;;;;;;4995461;28;20022;-36
2023/10/27 10:15:44;;;;;;;4.43;0.90;;;14.20;99.90;;;;;;4995386;28;20032;-40
2023/10/27 10:18:21;;;;;;;2.55;0.80;;;14.10;99.90;;;;;;4995597;28;20492;-40
2023/10/27 10:20:56;;;;;;;4.05;0.73;;;14.00;99.90;;;;;;4995922;28;20050;-37
2023/10/27 10:23:24;;;;;;;3.00;0.60;;;13.90;99.90;;;;;;4995723;28;20355;-39
2023/10/27 10:25:57;;;;;;;6.07;0.80;;;13.90;99.90;;;;;;4995557;28;20019;-39
2023/10/27 10:28:27;;;;;;;2.88;0.75;;;13.90;99.90;;;;;;4995161;28;20088;-36
2023/10/27 10:31:08;;;;;;;3.65;0.70;;;13.90;99.90;;;;;;4995250;28;20384;-39
2023/10/27 10:33:46;;;;;;;5.78;0.75;;;13.90;99.90;;;;;;4994960;28;20023;-36
2023/10/27 10:36:15;;;;;;;3.00;0.70;;;13.90;99.90;;;;;;4995144;28;20030;-37
2023/10/27 10:38:44;;;;;;;2.83;0.70;;;14.00;99.90;;;;;;4995318;28;20018;-40
2023/10/27 10:41:10;;;;;;;2.10;0.80;;;13.90;99.90;;;;;;4994926;28;20015;-36
2023/10/27 10:43:36;;;;;;;3.17;1.00;;;14.00;99.90;;;;;;4994997;28;20027;-41
2023/10/27 10:46:28;;;;;;;2.38;0.65;;;14.00;99.90;;;;;;4994404;28;20089;-39
2023/10/27 10:48:54;;;;;;;2.17;0.70;;;14.00;99.90;;;;;;4995058;28;20026;-41
2023/10/27 10:54:17;;;;;;;1.67;0.52;;;14.10;99.90;;;;;;4985842;28;20042;-40
2023/10/27 10:56:43;;;;;;;2.70;0.70;;;14.10;99.90;;;;;;4994573;28;20126;-37
2023/10/27 10:59:19;;;;;;;1.48;0.57;;;14.10;99.90;;;;;;4994661;28;20109;-39
2023/10/27 11:01:45;;;;;;;2.67;0.73;;;14.10;99.90;;;;;;4994606;28;20030;-39
2023/10/27 11:04:11;;;;;;;1.55;0.50;;;14.20;99.90;;;;;;4994412;28;20014;-41
2023/10/27 11:06:36;;;;;;;3.17;0.60;;;14.20;99.90;;;;;;4994154;28;20117;-39
2023/10/27 11:09:04;;;;;;;3.47;0.75;;;14.30;99.90;;;;;;4994231;28;20026;-39
2023/10/27 11:11:33;;;;;;;2.47;0.50;;;14.30;99.90;;;;;;4994357;28;20610;-39
2023/10/27 11:13:59;;;;;;;1.98;0.57;;;14.40;99.90;;;;;;4994355;28;20023;-42
2023/10/27 11:16:26;;;;;;;3.00;0.80;;;14.40;99.90;;;;;;4994045;28;20476;-41
2023/10/27 11:18:54;;;;;;;2.15;0.70;;;14.40;99.90;;;;;;4994027;28;20549;-36
2023/10/27 11:21:21;;;;;;;1.05;0.30;;;14.50;99.90;;;;;;4993665;28;20388;-36
2023/10/27 11:23:48;;;;;;;3.55;0.93;;;14.50;99.90;;;;;;4993916;28;20499;-39
2023/10/27 11:26:16;;;;;;;2.42;0.70;;;14.50;99.90;;;;;;4993711;28;20116;-39
2023/10/27 11:28:43;;;;;;;1.70;0.65;;;14.50;99.90;;;;;;4994051;28;20022;-36
2023/10/27 11:31:12;;;;;;;1.60;0.52;;;14.60;99.90;;;;;;4993903;28;20031;-39
2023/10/27 11:34:00;;;;;;;3.38;0.80;;;14.60;99.90;;;;;;4993911;28;20077;-39
2023/10/27 11:36:35;;;;;;;1.17;0.57;;;14.60;99.90;;;;;;4993584;28;20022;-41
2023/10/27 11:39:22;;;;;;;;;;;14.60;99.90;;;;;;4994325;28;20029;-39
2023/10/27 11:41:59;;;;;;;2.53;0.60;;;14.60;99.90;;;;;;4993611;28;19910;-39
2023/10/27 11:44:25;;;;;;;2.22;0.70;;;14.60;99.90;;;;;;4993658;28;20030;-41
2023/10/27 11:46:56;;;;;;;1.77;0.60;;;14.60;99.90;;;;;;4993361;28;20537;-41
2023/10/27 11:49:23;;;;;;;2.55;0.75;;;14.60;99.90;;;;;;4993684;28;20026;-36
2023/10/27 11:51:52;;;;;;;1.15;0.65;;;14.60;99.90;;;;;;4993540;28;20050;-39
2023/10/27 11:54:18;;;;;;;2.25;0.50;;;14.60;99.90;;;;;;4993442;28;20033;-38
2023/10/27 11:56:44;;;;;;;1.83;0.63;;;14.60;99.90;;;;;;4993196;28;20030;-39
2023/10/27 11:59:10;;;;;;;2.97;0.68;;;14.60;99.90;;;;;;4993305;28;20045;-41
2023/10/27 12:01:39;;;;;;;8.05;0.90;;;14.60;99.90;;;;;;4993369;28;20030;-39
2023/10/27 12:04:07;;;;;;;4.45;1.00;;;14.50;99.90;;;;;;4993276;28;20495;-39
2023/10/27 12:06:33;;;;;;;1.85;0.73;;;14.50;99.90;;;;;;4993213;28;20311;-36
2023/10/27 12:09:00;;;;;;;7.10;1.20;;;14.40;99.90;;;;;;4993261;28;20026;-41
2023/10/27 12:11:27;;;;;;;2.40;1.00;;;14.40;99.90;;;;;;4993103;28;20033;-41
2023/10/27 12:13:53;;;;;;;4.28;1.20;;;14.40;99.90;;;;;;4975668;28;20149;-39
2023/10/27 12:16:19;;;;;;;5.50;0.98;;;14.50;99.90;;;;;;4992851;28;20547;-43
2023/10/27 12:18:45;;;;;;;1.98;0.82;;;14.50;99.90;;;;;;4993131;28;20030;-36
2023/10/27 12:21:10;;;;;;;2.22;0.98;;;14.50;99.90;;;;;;4993031;28;20035;-39
2023/10/27 12:23:36;;;;;;;1.83;0.80;;;14.50;99.90;;;;;;4993061;28;20365;-41
2023/10/27 12:26:03;;;;;;;4.68;1.02;;;14.50;99.90;;;;;;4992605;28;20029;-38
2023/10/27 12:28:29;;;;;;;2.03;0.70;;;14.50;99.90;;;;;;4992936;28;20483;-39
2023/10/27 12:30:56;;;;;;;1.50;0.70;;;14.50;99.90;;;;;;4992401;28;20026;-39
2023/10/27 12:33:22;;;;;;;4.13;0.70;;;14.50;99.90;;;;;;4992748;28;20030;-41
2023/10/27 12:35:51;;;;;;;4.05;0.85;;;14.50;99.90;;;;;;4992646;28;20081;-39
2023/10/27 12:38:18;;;;;;;1.67;0.65;;;14.50;99.90;;;;;;4990386;28;20042;-41
2023/10/27 12:40:44;;;;;;;2.63;0.90;;;14.50;99.90;;;;;;4992496;28;20100;-38
2023/10/27 12:43:12;;;;;;;3.35;0.82;;;14.50;99.90;;;;;;4992788;28;20592;-38
2023/10/27 12:45:38;;;;;;;3.78;0.85;;;14.50;99.90;;;;;;4988607;28;20117;-39
2023/10/27 12:48:05;;;;;;;3.10;0.93;;;14.50;99.90;;;;;;4990315;28;20054;-39
2023/10/27 12:50:31;;;;;;;2.60;0.70;;;14.50;99.90;;;;;;4990769;28;20080;-39